»·PEaware :: N417LX KAPA-KASE

N417LX :: KAPA-KASE

FLIGHT INFORMATION

Flight Status: Arrived
Operator: Privately registered:
United States
More flights under this callsign
Pilot: Nate M. (12976)
Aircraft: Cessna Citation Excel
(C56X)
More flights by this aircraft type
Origin: KAPA Centennial
United States
Destination: KASE Aspen-Pitkin Co/Sardy
United States
More flights between these airports :: More routes between these airports
Route: CONNR4 BULDG AJAXX
File this flight plan on PilotEdge
Remarks:
Altitude:
(Current/Filed)
22,000ft
Speed:
(Current/Filed)
400kts
Departed: 07-Jan-18 04:30 PM
Arrived: 07-Jan-18 05:00 PM
Distance/Time
Traveled:
96nm/0:30
Distance/Time
To Go:
Arrived

Flight Plot

Page will automatically refresh every two minutes.

Flight plan parsing failed; only flown route is shown


Map Options




Map Legend


Flown Route
Filed Route
Departure Airport
Arrival Airport
Navaid (VOR, NDB)
Fix

Horizontal Profiles

Position Reports

Time Latitude Longitude Heading Altitude Ground
Speed
07-Jan-18 16:15 39.568202 -104.848105 0 5888ft 0kts
07-Jan-18 16:16 39.568202 -104.848105 0 5888ft 0kts
07-Jan-18 16:17 39.568202 -104.848105 0 5888ft 0kts
07-Jan-18 16:18 39.568202 -104.848105 0 5888ft 0kts
07-Jan-18 16:19 39.568202 -104.848105 0 5888ft 0kts
07-Jan-18 16:20 39.568202 -104.848105 0 5888ft 0kts
07-Jan-18 16:21 39.568202 -104.848105 0 5888ft 0kts
07-Jan-18 16:22 39.568202 -104.848105 0 5888ft 0kts
07-Jan-18 16:23 39.568202 -104.848105 0 5888ft 0kts
07-Jan-18 16:24 39.568202 -104.848105 0 5888ft 0kts
07-Jan-18 16:25 39.568202 -104.848105 0 5888ft 0kts
07-Jan-18 16:26 39.568202 -104.848105 0 5888ft 0kts
07-Jan-18 16:27 39.568202 -104.848105 0 5888ft 0kts
07-Jan-18 16:28 39.568202 -104.848105 0 5888ft 0kts
07-Jan-18 16:29 39.568202 -104.848105 0 5888ft 0kts
07-Jan-18 16:30 39.568202 -104.848105 0 5888ft 0kts
07-Jan-18 16:31 39.568202 -104.848105 0 5888ft 0kts
07-Jan-18 16:32 39.568202 -104.848105 0 5888ft 0kts
07-Jan-18 16:33 39.570077 -104.849412 357 5888ft 23kts
07-Jan-18 16:34 39.576703 -104.849728 358 5888ft 23kts
07-Jan-18 16:35 39.584002 -104.850166 319 5888ft 16kts
07-Jan-18 16:36 39.554398 -104.849759 177 6578ft 254kts
07-Jan-18 16:37 39.483175 -104.846485 178 7958ft 219kts
07-Jan-18 16:38 39.464570 -104.908649 277 9381ft 252kts
07-Jan-18 16:39 39.475184 -105.003960 283 11410ft 278kts
07-Jan-18 16:40 39.496255 -105.080823 293 13308ft 290kts
07-Jan-18 16:41 39.532627 -105.186048 294 15850ft 352kts
07-Jan-18 16:42 39.574045 -105.304520 294 18365ft 366kts
07-Jan-18 16:43 39.613423 -105.417617 294 20706ft 368kts
07-Jan-18 16:44 39.656035 -105.540564 294 21994ft 392kts
07-Jan-18 16:45 39.693408 -105.667701 272 22032ft 391kts
07-Jan-18 16:46 39.683313 -105.807211 262 21999ft 392kts
07-Jan-18 16:47 39.667840 -105.947397 262 22000ft 392kts
07-Jan-18 16:48 39.656213 -106.050892 262 22000ft 392kts
07-Jan-18 16:49 39.640858 -106.188897 261 21503ft 378kts
07-Jan-18 16:50 39.624844 -106.324516 257 20501ft 381kts
07-Jan-18 16:51 39.601923 -106.458681 257 19278ft 384kts
07-Jan-18 16:52 39.579699 -106.589265 257 17952ft 357kts
07-Jan-18 16:53 39.560556 -106.701060 257 16762ft 345kts
07-Jan-18 16:54 39.542764 -106.804375 257 16000ft 266kts
07-Jan-18 16:55 39.527147 -106.894600 257 15994ft 242kts
07-Jan-18 16:56 39.522589 -106.920828 257 15657ft 265kts
07-Jan-18 16:57 39.518294 -106.944970 254 15325ft 282kts
07-Jan-18 16:58 39.480920 -107.088202 254 14255ft 267kts
07-Jan-18 16:59 39.443299 -107.114741 162 13280ft 233kts
07-Jan-18 17:00 39.413754 -107.089345 139 12708ft 205kts
07-Jan-18 17:01 39.388637 -107.059113 132 11898ft 211kts
07-Jan-18 17:02 39.340687 -106.999257 130 11306ft 230kts
07-Jan-18 17:03 39.302092 -106.931507 123 10222ft 241kts
07-Jan-18 17:04 39.258705 -106.885635 160 8605ft 159kts
07-Jan-18 17:05 39.228898 -106.871490 158 7824ft 119kts
07-Jan-18 17:06 39.225237 -106.868504 50 7823ft 9kts

Navigation Log

Ident Type
Flight plan parsing failed, navigation log unavailable